createdAt,value
2018-12-11T00:01:03.507Z,51.88
2018-12-11T00:03:29.478Z,51.66
2018-12-11T00:05:55.473Z,52.18
2018-12-11T00:08:21.703Z,52.67
2018-12-11T00:10:47.689Z,52.32
2018-12-11T00:13:13.655Z,51.95
2018-12-11T00:15:39.631Z,51.86
2018-12-11T00:18:05.601Z,52.51
2018-12-11T00:20:31.567Z,51.88
2018-12-11T00:22:57.555Z,52.07
2018-12-11T00:25:23.590Z,51.85
2018-12-11T00:27:49.539Z,52.05
2018-12-11T00:30:15.496Z,51.60
2018-12-11T00:32:41.453Z,52.31
2018-12-11T00:35:07.429Z,52.03
2018-12-11T00:37:33.415Z,51.78
2018-12-11T00:39:59.457Z,51.49
2018-12-11T00:42:25.486Z,52.05
2018-12-11T00:44:51.478Z,51.39
2018-12-11T00:47:17.445Z,52.42
2018-12-11T00:49:43.473Z,52.08
2018-12-11T00:52:09.425Z,52.25
2018-12-11T00:54:35.376Z,52.17
2018-12-11T00:57:01.341Z,52.35
2018-12-11T00:59:27.305Z,51.67
2018-12-11T01:01:53.250Z,52.09
2018-12-11T01:04:19.221Z,52.27
2018-12-11T01:06:45.177Z,52.50
2018-12-11T01:09:11.142Z,51.96
2018-12-11T01:11:37.096Z,51.68
2018-12-11T01:14:03.086Z,52.14
2018-12-11T01:16:29.062Z,52.22
2018-12-11T01:18:55.054Z,52.12
2018-12-11T01:21:21.014Z,51.27
2018-12-11T01:23:46.993Z,51.69
2018-12-11T01:26:12.972Z,52.03
2018-12-11T01:28:38.939Z,51.46
2018-12-11T01:31:04.918Z,52.31
2018-12-11T01:33:30.875Z,52.01
2018-12-11T01:35:56.849Z,51.47
2018-12-11T01:38:22.795Z,51.85
2018-12-11T01:40:48.861Z,52.33
2018-12-11T01:43:14.816Z,52.11
2018-12-11T01:45:40.807Z,52.38
2018-12-11T01:48:06.838Z,51.82
2018-12-11T01:50:32.988Z,52.14
2018-12-11T01:52:59.242Z,52.43
2018-12-11T01:55:25.249Z,51.61
2018-12-11T01:57:51.202Z,52.42
2018-12-11T02:00:17.176Z,52.44
2018-12-11T02:02:43.124Z,51.65
2018-12-11T02:05:09.093Z,51.12
2018-12-11T02:07:35.057Z,51.33
2018-12-11T02:10:01.042Z,51.84
2018-12-11T02:12:27.019Z,52.31
2018-12-11T02:14:53.059Z,51.62
2018-12-11T02:17:19.006Z,51.79
2018-12-11T02:19:44.981Z,51.87
2018-12-11T02:22:10.956Z,51.46
2018-12-11T02:24:36.912Z,52.12
2018-12-11T02:27:02.863Z,51.62
2018-12-11T02:29:28.813Z,51.88
2018-12-11T02:31:54.792Z,51.98
2018-12-11T02:34:20.744Z,51.57
2018-12-11T02:36:46.707Z,51.55
2018-12-11T02:39:12.657Z,51.63
2018-12-11T02:41:38.614Z,51.58
2018-12-11T02:44:04.587Z,52.00
2018-12-11T02:46:30.671Z,52.21
2018-12-11T02:48:56.623Z,51.44
2018-12-11T02:51:22.590Z,51.45
2018-12-11T02:53:48.563Z,51.94
2018-12-11T02:56:14.514Z,51.63
2018-12-11T02:58:40.486Z,51.51
2018-12-11T03:01:06.484Z,51.22
2018-12-11T03:03:32.464Z,52.24
2018-12-11T03:05:58.525Z,51.90
2018-12-11T03:08:24.491Z,52.03
2018-12-11T03:10:50.448Z,51.95
2018-12-11T03:13:16.398Z,51.33
2018-12-11T03:15:42.449Z,51.44
2018-12-11T03:18:08.579Z,51.53
2018-12-11T03:20:34.527Z,51.70
2018-12-11T03:23:00.494Z,51.84
2018-12-11T03:25:26.545Z,52.50
2018-12-11T03:27:52.520Z,51.72
2018-12-11T03:30:18.475Z,52.48
2018-12-11T03:32:44.478Z,51.86
2018-12-11T03:35:10.430Z,52.03
2018-12-11T03:37:36.390Z,52.12
2018-12-11T03:40:02.357Z,51.84
2018-12-11T03:42:28.322Z,51.85
2018-12-11T03:44:54.274Z,52.13
2018-12-11T03:47:20.262Z,52.17
2018-12-11T03:49:46.253Z,51.63
2018-12-11T03:52:12.208Z,51.63
2018-12-11T03:54:38.154Z,52.01
2018-12-11T03:57:04.124Z,51.75
2018-12-11T03:59:30.177Z,51.70
2018-12-11T04:01:56.160Z,51.55
2018-12-11T04:04:22.123Z,52.49
2018-12-11T04:06:48.085Z,51.64
2018-12-11T04:09:14.038Z,51.94
2018-12-11T04:11:40.010Z,52.68
2018-12-11T04:14:05.982Z,51.75
2018-12-11T04:16:31.961Z,51.90
2018-12-11T04:18:57.905Z,52.67
2018-12-11T04:21:23.911Z,52.49
2018-12-11T04:23:49.916Z,52.42
2018-12-11T04:26:15.893Z,51.65
2018-12-11T04:28:41.860Z,51.56
2018-12-11T04:31:07.812Z,52.07
2018-12-11T04:33:33.798Z,51.75
2018-12-11T04:35:59.793Z,52.00
2018-12-11T04:38:25.781Z,51.32
2018-12-11T04:40:51.834Z,51.88
2018-12-11T04:43:17.791Z,51.52
2018-12-11T04:45:43.831Z,52.11
2018-12-11T04:48:09.824Z,51.61
2018-12-11T04:50:35.793Z,51.69
2018-12-11T04:53:01.745Z,51.99
2018-12-11T04:55:27.733Z,52.62
2018-12-11T04:57:53.750Z,51.58
2018-12-11T05:00:19.712Z,51.85
2018-12-11T05:02:45.689Z,52.51
2018-12-11T05:05:11.720Z,51.78
2018-12-11T05:07:37.673Z,52.06
2018-12-11T05:10:03.721Z,52.21
2018-12-11T05:12:29.680Z,51.88
2018-12-11T05:14:55.656Z,52.30
2018-12-11T05:17:21.713Z,52.35
2018-12-11T05:19:47.682Z,51.82
2018-12-11T05:22:13.633Z,51.74
2018-12-11T05:24:39.688Z,51.97
2018-12-11T05:27:05.732Z,51.95
2018-12-11T05:29:31.734Z,52.13
2018-12-11T05:31:57.797Z,51.29
2018-12-11T05:34:23.757Z,52.26
2018-12-11T05:36:49.708Z,52.19
2018-12-11T05:39:15.661Z,52.43
2018-12-11T05:41:43.089Z,51.52
2018-12-11T05:44:09.056Z,52.49
2018-12-11T05:46:35.051Z,51.60
2018-12-11T05:49:01.067Z,52.17
2018-12-11T05:51:27.024Z,51.66
2018-12-11T05:53:53.105Z,51.90
2018-12-11T05:56:19.121Z,52.30
2018-12-11T05:58:45.100Z,52.60
2018-12-11T06:01:11.253Z,51.83
2018-12-11T06:03:38.318Z,51.31
2018-12-11T06:06:04.428Z,51.75
2018-12-11T06:08:30.575Z,52.10
2018-12-11T06:10:56.520Z,51.94
2018-12-11T06:13:22.627Z,52.31
2018-12-11T06:15:48.624Z,51.76
2018-12-11T06:18:14.595Z,52.31
2018-12-11T06:20:40.669Z,51.90
2018-12-11T06:23:06.711Z,51.58
2018-12-11T06:25:32.663Z,51.86
2018-12-11T06:27:58.688Z,52.14
2018-12-11T06:30:24.649Z,51.91
2018-12-11T06:32:50.793Z,51.85
2018-12-11T06:35:16.784Z,52.18
2018-12-11T06:37:43.641Z,51.75
2018-12-11T06:40:09.790Z,52.22
2018-12-11T06:42:35.748Z,52.27
2018-12-11T06:45:01.702Z,51.92
2018-12-11T06:47:28.274Z,52.27
2018-12-11T06:49:55.254Z,51.92
2018-12-11T06:52:21.221Z,52.21
2018-12-11T06:54:47.218Z,51.91
2018-12-11T06:57:13.178Z,52.42
2018-12-11T06:59:39.335Z,51.51
2018-12-11T07:02:05.377Z,51.88
2018-12-11T07:04:32.569Z,51.20
2018-12-11T07:06:59.778Z,52.05
2018-12-11T07:09:25.803Z,51.81
2018-12-11T07:11:51.882Z,51.54
2018-12-11T07:14:17.879Z,51.58
2018-12-11T07:16:43.833Z,51.52
2018-12-11T07:19:09.798Z,52.31
2018-12-11T07:21:35.752Z,51.64
2018-12-11T07:24:01.948Z,52.33
2018-12-11T07:26:27.966Z,51.94
2018-12-11T07:28:53.995Z,52.05
2018-12-11T07:31:19.979Z,52.42
2018-12-11T07:33:50.782Z,51.83
2018-12-11T07:36:14.023Z,51.71
2018-12-11T07:38:39.977Z,52.35
2018-12-11T07:41:05.979Z,52.33
2018-12-11T07:43:32.038Z,51.81
2018-12-11T07:45:58.765Z,52.48
2018-12-11T07:48:25.316Z,51.84
2018-12-11T07:50:51.623Z,52.08
2018-12-11T07:53:18.898Z,51.42
2018-12-11T07:55:47.219Z,52.11
2018-12-11T07:58:13.462Z,52.14
2018-12-11T08:00:39.478Z,51.40
2018-12-11T08:03:05.575Z,51.47
2018-12-11T08:05:31.749Z,51.64
2018-12-11T08:07:58.041Z,52.07
2018-12-11T08:10:24.196Z,51.29
2018-12-11T08:12:50.160Z,51.89
2018-12-11T08:15:16.122Z,52.28
2018-12-11T08:17:42.087Z,52.35
2018-12-11T08:20:08.107Z,52.26
2018-12-11T08:22:34.057Z,51.62
2018-12-11T08:25:00.047Z,51.42
2018-12-11T08:27:26.092Z,52.00
2018-12-11T08:29:52.141Z,51.72
2018-12-11T08:32:18.584Z,52.47
2018-12-11T08:34:44.549Z,52.02
2018-12-11T08:37:10.601Z,51.39
2018-12-11T08:39:36.723Z,51.44
2018-12-11T08:42:02.720Z,52.29
2018-12-11T08:44:28.689Z,51.60
2018-12-11T08:46:54.631Z,51.47
2018-12-11T08:49:20.590Z,52.12
2018-12-11T08:51:46.624Z,52.46
2018-12-11T08:54:12.579Z,52.39
2018-12-11T08:56:38.562Z,52.50
2018-12-11T08:59:06.769Z,52.04
2018-12-11T09:01:32.543Z,52.19
2018-12-11T09:03:58.545Z,51.83
2018-12-11T09:06:24.510Z,52.73
2018-12-11T09:08:51.192Z,51.99
2018-12-11T09:11:17.162Z,52.33
2018-12-11T09:13:43.245Z,51.87
2018-12-11T09:16:09.289Z,52.71
2018-12-11T09:18:35.284Z,51.92
2018-12-11T09:21:01.263Z,49.81
2018-12-11T09:23:27.235Z,49.02
2018-12-11T09:25:53.196Z,49.47
2018-12-11T09:28:19.167Z,50.65
2018-12-11T09:30:45.196Z,50.61
2018-12-11T09:33:11.200Z,50.42
2018-12-11T09:35:37.186Z,50.94
2018-12-11T09:38:03.158Z,51.22
2018-12-11T09:40:29.245Z,51.69
2018-12-11T09:42:55.297Z,51.32
2018-12-11T09:45:21.433Z,51.77
2018-12-11T09:47:47.385Z,51.04
2018-12-11T09:50:13.335Z,51.49
2018-12-11T09:52:39.334Z,51.27
2018-12-11T09:55:05.301Z,51.94
2018-12-11T09:57:31.267Z,51.81
2018-12-11T09:59:57.226Z,51.56
2018-12-11T10:02:23.406Z,51.78
2018-12-11T10:04:49.368Z,51.87
2018-12-11T10:07:15.341Z,51.35
2018-12-11T10:09:42.306Z,51.07
2018-12-11T10:12:08.372Z,51.35
2018-12-11T10:14:34.363Z,51.84
2018-12-11T10:17:00.326Z,51.49
2018-12-11T10:22:01.924Z,50.92
2018-12-11T10:24:27.885Z,51.16
2018-12-11T10:26:53.873Z,51.03
2018-12-11T10:29:20.044Z,51.43
2018-12-11T10:31:46.179Z,52.17
2018-12-11T10:34:12.256Z,51.38
2018-12-11T10:36:38.223Z,51.49
2018-12-11T10:39:04.165Z,51.40
2018-12-11T10:41:30.134Z,51.19
2018-12-11T10:43:56.101Z,51.91
2018-12-11T10:46:22.051Z,52.03
2018-12-11T10:48:48.015Z,52.12
2018-12-11T10:51:14.002Z,52.19
2018-12-11T10:53:39.942Z,51.33
2018-12-11T10:56:06.015Z,51.57
2018-12-11T10:58:32.008Z,51.16
2018-12-11T11:00:58.057Z,51.95
2018-12-11T11:03:24.130Z,50.80
2018-12-11T11:05:50.085Z,51.03
2018-12-11T11:08:16.050Z,51.15
2018-12-11T11:10:42.021Z,51.39
2018-12-11T11:13:08.003Z,50.91
2018-12-11T11:15:33.976Z,51.68
2018-12-11T11:18:00.008Z,51.80
2018-12-11T11:20:26.023Z,50.81
2018-12-11T11:22:52.045Z,50.79
2018-12-11T11:25:17.999Z,50.60
2018-12-11T11:27:44.113Z,51.43
2018-12-11T11:30:10.192Z,50.62
2018-12-11T11:32:36.168Z,51.62
2018-12-11T11:35:02.267Z,51.35
2018-12-11T11:37:28.238Z,51.18
2018-12-11T11:39:54.232Z,50.68
2018-12-11T11:42:20.177Z,50.82
2018-12-11T11:44:46.248Z,50.86
2018-12-11T11:47:12.205Z,51.10
2018-12-11T11:49:38.173Z,51.58
2018-12-11T11:52:04.203Z,51.02
2018-12-11T11:54:30.151Z,51.02
2018-12-11T11:56:56.235Z,50.38
2018-12-11T11:59:22.191Z,50.78
2018-12-11T12:01:48.274Z,50.47
2018-12-11T12:04:14.241Z,50.51
2018-12-11T12:06:40.209Z,51.38
2018-12-11T12:09:06.338Z,50.95
2018-12-11T12:11:32.301Z,50.72
2018-12-11T12:13:59.144Z,50.49
2018-12-11T12:16:25.304Z,51.06
2018-12-11T12:18:51.323Z,50.71
2018-12-11T12:21:17.417Z,50.53
2018-12-11T12:23:43.423Z,51.12
2018-12-11T12:26:09.399Z,50.82
2018-12-11T12:28:35.419Z,50.70
2018-12-11T12:31:01.374Z,50.86
2018-12-11T12:33:27.633Z,50.75
2018-12-11T12:35:53.623Z,51.44
2018-12-11T12:38:19.600Z,50.79
2018-12-11T12:40:45.564Z,51.66
2018-12-11T12:43:11.540Z,51.97
2018-12-11T12:45:37.514Z,50.80
2018-12-11T12:48:03.474Z,50.27
2018-12-11T12:50:29.474Z,50.09
2018-12-11T12:52:55.711Z,49.87
2018-12-11T12:55:21.689Z,50.52
2018-12-11T12:57:47.646Z,50.74
2018-12-11T13:00:13.606Z,50.90
2018-12-11T13:02:39.548Z,51.16
2018-12-11T13:05:05.775Z,51.59
2018-12-11T13:07:31.758Z,51.36
2018-12-11T13:09:57.758Z,50.74
2018-12-11T13:12:23.724Z,50.60
2018-12-11T13:14:49.669Z,51.03
2018-12-11T13:17:15.773Z,50.97
2018-12-11T13:19:41.726Z,50.93
2018-12-11T13:22:07.743Z,51.47
2018-12-11T13:24:33.693Z,51.02
2018-12-11T13:26:59.653Z,50.96
2018-12-11T13:29:25.609Z,51.43
2018-12-11T13:31:51.665Z,51.24
2018-12-11T13:34:17.638Z,51.08
2018-12-11T13:36:43.625Z,50.91
2018-12-11T13:39:09.587Z,51.80
2018-12-11T13:41:35.551Z,52.00
2018-12-11T13:44:01.507Z,51.97
2018-12-11T13:46:27.529Z,51.34
2018-12-11T13:48:53.640Z,51.73
2018-12-11T13:51:19.746Z,52.18
2018-12-11T13:53:45.719Z,51.99
2018-12-11T13:56:11.693Z,52.11
2018-12-11T13:58:37.665Z,51.29
2018-12-11T14:01:03.622Z,49.78
2018-12-11T14:03:29.586Z,48.96
2018-12-11T14:05:55.575Z,48.89
2018-12-11T14:08:21.554Z,49.05
2018-12-11T14:10:47.513Z,48.56
2018-12-11T14:13:14.583Z,48.49
2018-12-11T14:15:40.554Z,49.05
2018-12-11T14:18:06.536Z,50.57
2018-12-11T14:20:32.504Z,50.43
2018-12-11T14:22:58.483Z,50.38
2018-12-11T14:25:24.447Z,50.27
2018-12-11T14:27:50.660Z,50.21
2018-12-11T14:30:16.692Z,50.26
2018-12-11T14:32:42.678Z,50.76
2018-12-11T14:35:08.645Z,52.08
2018-12-11T14:37:34.670Z,52.00
2018-12-11T14:40:00.622Z,51.20
2018-12-11T14:42:26.646Z,51.76
2018-12-11T14:44:52.966Z,51.37
2018-12-11T14:47:19.011Z,52.03
2018-12-11T14:49:45.091Z,51.80
2018-12-11T14:52:11.151Z,51.18
2018-12-11T14:54:37.342Z,52.12
2018-12-11T14:57:03.290Z,51.67
2018-12-11T14:59:29.497Z,51.93
2018-12-11T15:01:55.719Z,51.52
2018-12-11T15:04:21.942Z,52.03
2018-12-11T15:06:47.956Z,51.18
2018-12-11T15:09:14.945Z,51.19
2018-12-11T15:11:40.943Z,51.97
2018-12-11T15:14:07.003Z,51.48
2018-12-11T15:16:33.702Z,51.75
2018-12-11T15:18:59.740Z,51.51
2018-12-11T15:21:26.155Z,52.03
2018-12-11T15:23:52.386Z,51.13
2018-12-11T15:26:18.367Z,51.74
2018-12-11T15:28:44.390Z,51.59
2018-12-11T15:31:10.544Z,51.76
2018-12-11T15:33:36.639Z,51.32
2018-12-11T15:36:02.647Z,51.48
2018-12-11T15:38:28.673Z,51.45
2018-12-11T15:40:54.721Z,50.96
2018-12-11T15:43:20.713Z,51.06
2018-12-11T15:45:46.681Z,51.19
2018-12-11T15:48:12.846Z,51.90
2018-12-11T15:50:38.795Z,51.09
2018-12-11T15:53:04.867Z,50.89
2018-12-11T15:55:30.825Z,51.30
2018-12-11T15:57:56.874Z,51.61
2018-12-11T16:00:22.882Z,51.47
2018-12-11T16:02:48.990Z,51.62
2018-12-11T16:05:14.960Z,51.98
2018-12-11T16:07:40.943Z,51.92
2018-12-11T16:10:06.902Z,52.18
2018-12-11T16:12:33.032Z,51.33
2018-12-11T16:14:59.029Z,51.46
2018-12-11T16:17:25.020Z,52.35
2018-12-11T16:19:51.066Z,51.96
2018-12-11T16:22:17.110Z,51.50
2018-12-11T16:24:43.092Z,52.24
2018-12-11T16:27:09.057Z,51.29
2018-12-11T16:29:35.075Z,51.02
2018-12-11T16:32:01.109Z,50.98
2018-12-11T16:34:27.102Z,51.69
2018-12-11T16:36:53.145Z,51.00
2018-12-11T16:39:19.198Z,51.78
2018-12-11T16:41:45.349Z,51.95
2018-12-11T16:44:11.368Z,52.13
2018-12-11T16:46:37.577Z,52.42
2018-12-11T16:49:03.658Z,51.39
2018-12-11T16:51:29.779Z,51.53
2018-12-11T16:53:55.743Z,51.03
2018-12-11T16:56:21.814Z,51.55
2018-12-11T16:58:47.887Z,51.37
2018-12-11T17:01:13.945Z,51.42
2018-12-11T17:03:39.907Z,50.69
2018-12-11T17:06:06.134Z,50.96
2018-12-11T17:08:32.128Z,51.83
2018-12-11T17:10:58.113Z,50.75
2018-12-11T17:13:24.276Z,51.67
2018-12-11T17:15:50.460Z,51.01
2018-12-11T17:18:16.573Z,50.74
2018-12-11T17:20:42.551Z,51.32
2018-12-11T17:23:08.518Z,51.44
2018-12-11T17:25:35.135Z,50.82
2018-12-11T17:28:01.118Z,51.83
2018-12-11T17:30:27.123Z,51.44
2018-12-11T17:32:53.178Z,51.85
2018-12-11T17:35:19.139Z,50.88
2018-12-11T17:37:45.138Z,51.24
2018-12-11T17:40:11.130Z,51.29
2018-12-11T17:42:37.216Z,51.52
2018-12-11T17:45:04.164Z,51.69
2018-12-11T17:47:30.160Z,51.79
2018-12-11T17:49:56.120Z,51.37
2018-12-11T17:52:22.093Z,52.18
2018-12-11T17:54:48.077Z,51.47
2018-12-11T17:57:14.109Z,51.91
2018-12-11T17:59:40.069Z,51.74
2018-12-11T18:02:06.119Z,51.84
2018-12-11T18:04:32.200Z,51.56
2018-12-11T18:06:58.154Z,51.12
2018-12-11T18:09:24.133Z,50.86
2018-12-11T18:11:50.090Z,51.67
2018-12-11T18:14:16.047Z,51.25
2018-12-11T18:16:42.043Z,51.41
2018-12-11T18:19:08.043Z,51.12
2018-12-11T18:21:34.031Z,51.32
2018-12-11T18:24:00.117Z,50.73
2018-12-11T18:26:26.217Z,51.23
2018-12-11T18:28:52.185Z,51.48
2018-12-11T18:31:18.177Z,50.30
2018-12-11T18:33:44.185Z,51.29
2018-12-11T18:36:10.256Z,51.49
2018-12-11T18:38:36.261Z,50.77
2018-12-11T18:41:02.245Z,50.84
2018-12-11T18:43:28.335Z,51.26
2018-12-11T18:45:54.347Z,51.44
2018-12-11T18:48:20.916Z,51.35
2018-12-11T18:50:47.204Z,51.10
2018-12-11T18:53:13.220Z,50.35
2018-12-11T18:55:39.277Z,51.36
2018-12-11T18:58:05.299Z,50.89
2018-12-11T19:00:31.258Z,50.47
2018-12-11T19:02:57.258Z,50.87
2018-12-11T19:05:23.235Z,50.34
2018-12-11T19:07:49.201Z,50.01
2018-12-11T19:10:15.165Z,50.18
2018-12-11T19:12:41.991Z,50.78
2018-12-11T19:15:08.131Z,50.81
2018-12-11T19:17:34.453Z,50.28
2018-12-11T19:20:01.088Z,51.03
2018-12-11T19:22:27.067Z,50.16
2018-12-11T19:24:53.024Z,50.93
2018-12-11T19:27:19.405Z,50.33
2018-12-11T19:29:45.433Z,51.05
2018-12-11T19:32:11.472Z,49.99
2018-12-11T19:34:38.118Z,50.29
2018-12-11T19:37:04.241Z,51.02
2018-12-11T19:39:30.205Z,50.19
2018-12-11T19:41:56.206Z,50.24
2018-12-11T19:44:22.183Z,50.38
2018-12-11T19:46:48.240Z,50.86
2018-12-11T19:49:14.285Z,50.37
2018-12-11T19:51:40.235Z,50.13
2018-12-11T19:54:06.215Z,50.31
2018-12-11T19:56:32.275Z,51.40
2018-12-11T19:58:58.264Z,51.04
2018-12-11T20:01:24.264Z,51.38
2018-12-11T20:03:50.210Z,50.63
2018-12-11T20:06:16.293Z,50.42
2018-12-11T20:08:42.267Z,50.86
2018-12-11T20:11:08.275Z,50.76
2018-12-11T20:13:34.260Z,51.19
2018-12-11T20:16:00.249Z,51.17
2018-12-11T20:18:26.216Z,50.67
2018-12-11T20:20:52.356Z,50.74
2018-12-11T20:23:18.402Z,50.68
2018-12-11T20:25:44.380Z,50.87
2018-12-11T20:28:10.337Z,50.70
2018-12-11T20:30:36.437Z,50.84
2018-12-11T20:33:02.421Z,51.54
2018-12-11T20:35:28.413Z,50.84
2018-12-11T20:37:54.388Z,50.75
2018-12-11T20:40:20.424Z,50.51
2018-12-11T20:42:46.377Z,50.99
2018-12-11T20:45:12.397Z,50.93
2018-12-11T20:47:38.391Z,50.69
2018-12-11T20:50:04.387Z,51.64
2018-12-11T20:52:30.368Z,51.04
2018-12-11T20:54:56.560Z,51.28
2018-12-11T20:57:22.547Z,51.15
2018-12-11T20:59:48.621Z,51.03
2018-12-11T21:02:14.595Z,50.88
2018-12-11T21:04:40.567Z,50.97
2018-12-11T21:07:06.646Z,51.14
2018-12-11T21:09:32.684Z,51.44
2018-12-11T21:11:58.718Z,50.82
2018-12-11T21:14:24.687Z,50.83
2018-12-11T21:16:50.653Z,51.09
2018-12-11T21:19:16.632Z,51.34
2018-12-11T21:21:42.626Z,50.61
2018-12-11T21:24:08.706Z,50.35
2018-12-11T21:26:34.695Z,50.56
2018-12-11T21:29:00.675Z,51.21
2018-12-11T21:31:26.737Z,50.91
2018-12-11T21:33:52.726Z,51.23
2018-12-11T21:36:18.710Z,50.70
2018-12-11T21:38:44.777Z,50.53
2018-12-11T21:41:10.762Z,50.60
2018-12-11T21:43:36.737Z,51.44
2018-12-11T21:46:02.726Z,51.77
2018-12-11T21:48:28.770Z,51.00
2018-12-11T21:50:54.747Z,51.51
2018-12-11T21:53:20.720Z,51.56
2018-12-11T21:55:46.764Z,50.54
2018-12-11T21:58:12.725Z,51.13
2018-12-11T22:00:38.715Z,50.97
2018-12-11T22:03:04.688Z,51.44
2018-12-11T22:05:30.800Z,51.04
2018-12-11T22:07:56.746Z,50.27
2018-12-11T22:10:22.755Z,50.82
2018-12-11T22:12:48.816Z,50.19
2018-12-11T22:15:14.784Z,51.04
2018-12-11T22:17:40.780Z,51.20
2018-12-11T22:20:06.799Z,50.52
2018-12-11T22:22:32.757Z,50.83
2018-12-11T22:24:58.732Z,50.72
2018-12-11T22:27:24.727Z,50.79
2018-12-11T22:29:50.714Z,50.91
2018-12-11T22:32:16.723Z,50.45
2018-12-11T22:34:42.706Z,50.47
2018-12-11T22:37:08.741Z,50.75
2018-12-11T22:39:34.729Z,51.25
2018-12-11T22:42:00.809Z,50.69
2018-12-11T22:44:26.884Z,50.77
2018-12-11T22:46:52.847Z,50.47
2018-12-11T22:49:18.822Z,50.74
2018-12-11T22:51:44.779Z,51.23
2018-12-11T22:54:10.768Z,50.56
2018-12-11T22:56:36.709Z,51.01
2018-12-11T22:59:02.717Z,50.47
2018-12-11T23:01:28.881Z,50.72
2018-12-11T23:03:54.924Z,50.34
2018-12-11T23:06:20.883Z,50.81
2018-12-11T23:08:46.844Z,50.84
2018-12-11T23:11:12.837Z,50.22
2018-12-11T23:13:38.812Z,50.89
2018-12-11T23:16:04.761Z,50.15
2018-12-11T23:18:30.714Z,50.22
2018-12-11T23:20:56.756Z,50.29
2018-12-11T23:23:22.723Z,51.01
2018-12-11T23:25:48.725Z,51.77
2018-12-11T23:28:14.696Z,50.77
2018-12-11T23:30:40.788Z,50.50
2018-12-11T23:33:06.746Z,50.04
2018-12-11T23:35:32.720Z,50.34
2018-12-11T23:37:58.866Z,50.91
2018-12-11T23:40:24.827Z,50.73
2018-12-11T23:42:50.831Z,50.22
2018-12-11T23:45:16.784Z,50.50
2018-12-11T23:47:42.778Z,50.77
2018-12-11T23:50:08.803Z,50.90
2018-12-11T23:52:34.767Z,50.85
2018-12-11T23:55:00.748Z,50.08
2018-12-11T23:57:26.718Z,50.06
2018-12-11T23:59:52.666Z,50.84
